createdAt,value
2023-04-17T00:01:20.112Z,67.40
2023-04-17T00:03:47.450Z,67.50
2023-04-17T00:06:14.440Z,67.30
2023-04-17T00:08:41.173Z,67.40
2023-04-17T00:11:09.102Z,67.30
2023-04-17T00:13:36.493Z,67.30
2023-04-17T00:16:03.509Z,67.40
2023-04-17T00:18:30.603Z,67.60
2023-04-17T00:20:57.802Z,67.60
2023-04-17T00:23:25.761Z,67.60
2023-04-17T00:25:52.580Z,67.90
2023-04-17T00:28:19.455Z,67.80
2023-04-17T00:30:46.932Z,67.60
2023-04-17T00:33:13.707Z,67.50
2023-04-17T00:35:40.888Z,67.60
2023-04-17T00:38:10.758Z,67.80
2023-04-17T00:40:37.536Z,68.00
2023-04-17T00:43:04.923Z,68.10
2023-04-17T00:45:31.845Z,68.20
2023-04-17T00:47:59.706Z,68.20
2023-04-17T00:50:27.725Z,68.20
2023-04-17T00:52:55.226Z,68.40
2023-04-17T00:55:22.150Z,68.50
2023-04-17T00:57:49.457Z,68.50
2023-04-17T01:00:18.503Z,68.20
2023-04-17T01:02:46.680Z,68.30
2023-04-17T01:05:13.773Z,68.50
2023-04-17T01:07:41.323Z,68.50
2023-04-17T01:10:09.312Z,68.50
2023-04-17T01:12:36.665Z,68.30
2023-04-17T01:15:03.783Z,68.50
2023-04-17T01:17:30.667Z,68.60
2023-04-17T01:19:57.915Z,69.00
2023-04-17T01:22:24.739Z,69.10
2023-04-17T01:24:51.991Z,69.00
2023-04-17T01:27:18.761Z,68.80
2023-04-17T01:29:45.533Z,69.70
2023-04-17T01:32:12.389Z,69.00
2023-04-17T01:34:39.339Z,68.90
2023-04-17T01:37:07.073Z,68.80
2023-04-17T01:39:34.019Z,69.60
2023-04-17T01:42:01.013Z,68.80
2023-04-17T01:44:27.858Z,68.90
2023-04-17T01:46:54.895Z,69.00
2023-04-17T01:49:21.674Z,68.70
2023-04-17T01:51:48.466Z,68.80
2023-04-17T01:54:18.046Z,68.70
2023-04-17T01:56:45.015Z,68.80
2023-04-17T01:59:12.007Z,68.90
2023-04-17T02:01:39.002Z,68.80
2023-04-17T02:04:05.915Z,69.00
2023-04-17T02:06:33.472Z,69.10
2023-04-17T02:09:00.338Z,69.10
2023-04-17T02:11:27.397Z,69.20
2023-04-17T02:13:54.130Z,69.20
2023-04-17T02:16:24.232Z,69.10
2023-04-17T02:18:51.427Z,69.20
2023-04-17T02:21:18.278Z,69.10
2023-04-17T02:23:45.066Z,68.90
2023-04-17T02:26:12.398Z,68.80
2023-04-17T02:28:39.422Z,69.10
2023-04-17T02:31:08.411Z,69.10
2023-04-17T02:33:36.890Z,69.10
2023-04-17T02:36:06.907Z,69.00
2023-04-17T02:38:33.777Z,68.80
2023-04-17T02:41:00.826Z,69.00
2023-04-17T02:43:27.601Z,69.10
2023-04-17T02:45:54.389Z,69.00
2023-04-17T02:48:21.249Z,69.20
2023-04-17T02:50:48.439Z,69.10
2023-04-17T02:53:15.325Z,69.20
2023-04-17T02:55:42.133Z,69.20
2023-04-17T02:58:09.682Z,69.10
2023-04-17T03:00:36.479Z,69.10
2023-04-17T03:03:03.851Z,69.10
2023-04-17T03:05:30.774Z,69.10
2023-04-17T03:07:59.249Z,69.10
2023-04-17T03:10:26.222Z,69.10
2023-04-17T03:12:53.448Z,69.20
2023-04-17T03:15:20.414Z,69.50
2023-04-17T03:17:47.835Z,69.40
2023-04-17T03:20:16.141Z,69.60
2023-04-17T03:22:43.117Z,69.40
2023-04-17T03:25:10.389Z,69.40
2023-04-17T03:27:38.695Z,69.40
2023-04-17T03:30:06.619Z,69.40
2023-04-17T03:32:33.542Z,69.10
2023-04-17T03:35:01.773Z,69.30
2023-04-17T03:37:30.008Z,69.30
2023-04-17T03:39:56.871Z,69.40
2023-04-17T03:42:24.316Z,69.50
2023-04-17T03:44:52.087Z,69.50
2023-04-17T03:47:18.934Z,69.60
2023-04-17T03:49:45.928Z,69.60
2023-04-17T03:52:12.789Z,69.60
2023-04-17T03:54:40.104Z,69.60
2023-04-17T03:57:06.967Z,69.50
2023-04-17T03:59:34.163Z,69.60
2023-04-17T04:02:02.518Z,69.60
2023-04-17T04:04:29.598Z,69.70
2023-04-17T04:06:58.095Z,69.60
2023-04-17T04:09:28.877Z,69.60
2023-04-17T04:11:55.643Z,69.50
2023-04-17T04:14:22.445Z,69.70
2023-04-17T04:16:49.529Z,69.90
2023-04-17T04:19:16.307Z,70.00
2023-04-17T04:21:43.592Z,70.00
2023-04-17T04:24:10.493Z,70.00
2023-04-17T04:26:40.979Z,70.00
2023-04-17T04:29:09.018Z,70.10
2023-04-17T04:31:37.893Z,70.00
2023-04-17T04:34:06.094Z,70.20
2023-04-17T04:36:36.314Z,70.10
2023-04-17T04:39:05.780Z,70.20
2023-04-17T04:41:35.553Z,71.00
2023-04-17T04:44:02.690Z,70.20
2023-04-17T04:46:29.487Z,69.90
2023-04-17T04:48:56.727Z,70.00
2023-04-17T04:51:23.459Z,70.10
2023-04-17T04:53:50.334Z,70.30
2023-04-17T04:56:17.148Z,70.30
2023-04-17T04:58:43.909Z,70.30
2023-04-17T05:01:12.258Z,70.40
2023-04-17T05:03:39.295Z,70.30
2023-04-17T05:06:06.543Z,70.20
2023-04-17T05:08:33.599Z,70.30
2023-04-17T05:11:00.357Z,70.30
2023-04-17T05:13:27.183Z,70.20
2023-04-17T05:15:53.982Z,70.10
2023-04-17T05:18:20.860Z,70.10
2023-04-17T05:20:47.651Z,70.10
2023-04-17T05:23:14.572Z,70.00
2023-04-17T05:25:41.332Z,70.00
2023-04-17T05:28:08.504Z,70.20
2023-04-17T05:30:35.488Z,70.30
2023-04-17T05:33:02.424Z,70.40
2023-04-17T05:35:29.289Z,70.20
2023-04-17T05:37:56.209Z,70.30
2023-04-17T05:40:23.265Z,70.40
2023-04-17T05:42:50.168Z,70.20
2023-04-17T05:45:18.158Z,70.20
2023-04-17T05:47:45.124Z,70.30
2023-04-17T05:50:12.416Z,70.30
2023-04-17T05:52:39.603Z,70.40
2023-04-17T05:55:07.496Z,70.40
2023-04-17T05:57:34.403Z,70.40
2023-04-17T06:00:01.400Z,70.60
2023-04-17T06:02:28.436Z,70.50
2023-04-17T06:04:55.553Z,70.60
2023-04-17T06:07:23.775Z,70.70
2023-04-17T06:09:50.864Z,70.70
2023-04-17T06:12:17.663Z,70.80
2023-04-17T06:14:44.845Z,70.70
2023-04-17T06:17:12.489Z,70.70
2023-04-17T06:19:39.789Z,71.50
2023-04-17T06:22:06.726Z,70.80
2023-04-17T06:24:33.871Z,70.60
2023-04-17T06:27:00.691Z,70.60
2023-04-17T06:29:28.065Z,70.50
2023-04-17T06:31:54.957Z,70.60
2023-04-17T06:34:22.314Z,70.50
2023-04-17T06:36:49.234Z,70.60
2023-04-17T06:39:15.973Z,70.70
2023-04-17T06:41:42.871Z,70.80
2023-04-17T06:44:10.156Z,70.70
2023-04-17T06:46:37.035Z,70.80
2023-04-17T06:49:03.910Z,70.70
2023-04-17T06:51:31.330Z,70.50
2023-04-17T06:53:59.291Z,70.60
2023-04-17T06:56:26.128Z,70.60
2023-04-17T06:58:53.926Z,70.50
2023-04-17T07:01:21.295Z,71.40
2023-04-17T07:03:48.431Z,70.50
2023-04-17T07:06:15.773Z,70.60
2023-04-17T07:08:42.611Z,70.70
2023-04-17T07:11:09.997Z,70.90
2023-04-17T07:13:36.875Z,71.10
2023-04-17T07:16:06.330Z,71.10
2023-04-17T07:18:33.733Z,71.00
2023-04-17T07:21:01.414Z,71.20
2023-04-17T07:23:28.267Z,71.10
2023-04-17T07:25:55.147Z,71.30
2023-04-17T07:28:22.118Z,71.40
2023-04-17T07:30:48.988Z,71.70
2023-04-17T07:33:16.103Z,72.00
2023-04-17T07:35:43.902Z,72.10
2023-04-17T07:38:11.252Z,72.00
2023-04-17T07:40:38.577Z,72.10
2023-04-17T07:43:05.383Z,72.20
2023-04-17T07:45:33.483Z,72.20
2023-04-17T07:48:00.449Z,72.20
2023-04-17T07:50:28.000Z,72.20
2023-04-17T07:52:55.434Z,72.10
2023-04-17T07:55:22.592Z,72.20
2023-04-17T07:57:51.860Z,72.20
2023-04-17T08:00:19.550Z,72.30
2023-04-17T08:02:47.048Z,72.20
2023-04-17T08:05:14.108Z,72.30
2023-04-17T08:07:42.587Z,72.20
2023-04-17T08:10:09.846Z,72.20
2023-04-17T08:12:37.102Z,72.20
2023-04-17T08:15:04.363Z,72.40
2023-04-17T08:17:31.244Z,72.30
2023-04-17T08:19:58.040Z,72.40
2023-04-17T08:22:28.792Z,72.30
2023-04-17T08:24:58.840Z,72.40
2023-04-17T08:27:25.981Z,72.50
2023-04-17T08:29:55.468Z,72.30
2023-04-17T08:32:22.373Z,72.20
2023-04-17T08:34:49.656Z,72.10
2023-04-17T08:37:16.460Z,72.10
2023-04-17T08:39:43.295Z,72.10
2023-04-17T08:42:18.444Z,72.20
2023-04-17T08:44:46.004Z,72.30
2023-04-17T08:47:13.483Z,70.90
2023-04-17T08:49:43.604Z,70.80
2023-04-17T08:52:10.932Z,70.70
2023-04-17T08:54:38.884Z,70.50
2023-04-17T08:57:06.198Z,70.50
2023-04-17T08:59:33.106Z,70.10
2023-04-17T09:02:07.128Z,70.10
2023-04-17T09:04:47.703Z,70.20
2023-04-17T09:07:18.456Z,69.80
2023-04-17T09:09:48.358Z,70.00
2023-04-17T09:12:15.540Z,69.70
2023-04-17T09:14:42.387Z,69.60
2023-04-17T09:17:09.706Z,69.50
2023-04-17T09:19:36.610Z,69.50
2023-04-17T09:22:20.066Z,69.50
2023-04-17T09:24:47.226Z,69.30
2023-04-17T09:27:24.136Z,69.00
2023-04-17T09:29:57.706Z,69.10
2023-04-17T09:32:28.967Z,69.10
2023-04-17T09:34:57.751Z,69.00
2023-04-17T09:37:24.822Z,69.00
2023-04-17T09:39:59.605Z,69.10
2023-04-17T09:42:29.563Z,69.10
2023-04-17T09:44:57.904Z,69.20
2023-04-17T09:47:24.832Z,69.20
2023-04-17T09:49:53.223Z,69.20
2023-04-17T09:52:21.833Z,69.30
2023-04-17T09:54:49.328Z,69.30
2023-04-17T09:57:16.891Z,69.20
2023-04-17T09:59:50.564Z,69.40
2023-04-17T10:02:18.430Z,69.10
2023-04-17T10:04:45.949Z,68.80
2023-04-17T10:07:13.291Z,68.80
2023-04-17T10:09:41.829Z,68.70
2023-04-17T10:12:26.824Z,68.40
2023-04-17T10:14:53.682Z,68.50
2023-04-17T10:17:31.886Z,68.40
2023-04-17T10:20:20.520Z,68.30
2023-04-17T10:22:57.108Z,68.10
2023-04-17T10:25:27.644Z,67.60
2023-04-17T10:27:59.113Z,67.50
2023-04-17T10:31:04.210Z,67.20
2023-04-17T10:33:31.556Z,67.00
2023-04-17T10:35:58.401Z,66.70
2023-04-17T10:38:32.814Z,66.30
2023-04-17T10:41:04.793Z,66.40
2023-04-17T10:43:31.726Z,66.10
2023-04-17T10:46:11.387Z,65.90
2023-04-17T10:48:48.039Z,66.00
2023-04-17T10:51:29.330Z,65.70
2023-04-17T10:54:02.328Z,65.80
2023-04-17T10:56:30.938Z,65.80
2023-04-17T10:59:06.812Z,65.60
2023-04-17T11:01:58.245Z,65.50
2023-04-17T11:04:29.657Z,65.60
2023-04-17T11:06:56.913Z,65.20
2023-04-17T11:09:25.272Z,65.10
2023-04-17T11:11:52.083Z,64.90
2023-04-17T11:14:20.019Z,64.90
2023-04-17T11:16:47.993Z,65.10
2023-04-17T11:19:21.461Z,64.70
2023-04-17T11:21:52.429Z,64.80
2023-04-17T11:24:24.121Z,64.80
2023-04-17T11:26:51.662Z,64.80
2023-04-17T11:29:22.554Z,64.80
2023-04-17T11:31:51.941Z,64.50
2023-04-17T11:34:18.937Z,64.50
2023-04-17T11:36:52.556Z,64.50
2023-04-17T11:39:19.987Z,64.30
2023-04-17T11:41:47.187Z,64.00
2023-04-17T11:44:14.549Z,64.00
2023-04-17T11:46:41.650Z,63.80
2023-04-17T11:49:08.575Z,63.60
2023-04-17T11:51:36.195Z,63.60
2023-04-17T11:54:03.149Z,63.50
2023-04-17T11:56:30.998Z,63.60
2023-04-17T11:58:59.343Z,63.60
2023-04-17T12:01:27.366Z,64.20
2023-04-17T12:03:54.818Z,63.30
2023-04-17T12:06:22.254Z,63.30
2023-04-17T12:08:50.531Z,63.30
2023-04-17T12:11:26.249Z,63.30
2023-04-17T12:13:53.732Z,63.20
2023-04-17T12:16:24.780Z,63.00
2023-04-17T12:18:51.988Z,62.90
2023-04-17T12:21:20.497Z,62.90
2023-04-17T12:23:47.578Z,62.80
2023-04-17T12:26:14.949Z,62.70
2023-04-17T12:28:41.769Z,62.70
2023-04-17T12:31:08.657Z,62.80
2023-04-17T12:33:35.652Z,62.80
2023-04-17T12:36:04.115Z,62.70
2023-04-17T12:38:31.114Z,63.50
2023-04-17T12:40:58.518Z,62.70
2023-04-17T12:43:25.383Z,62.70
2023-04-17T12:45:55.160Z,62.70
2023-04-17T12:48:21.993Z,62.60
2023-04-17T12:50:48.769Z,62.50
2023-04-17T12:53:15.767Z,62.50
2023-04-17T12:55:44.032Z,62.30
2023-04-17T12:58:12.295Z,62.20
2023-04-17T13:00:44.334Z,62.10
2023-04-17T13:03:14.004Z,62.00
2023-04-17T13:05:40.932Z,62.10
2023-04-17T13:08:12.599Z,62.20
2023-04-17T13:10:39.442Z,63.00
2023-04-17T13:13:06.293Z,61.90
2023-04-17T13:15:33.312Z,61.90
2023-04-17T13:18:00.173Z,62.10
2023-04-17T13:20:27.180Z,61.40
2023-04-17T13:22:54.004Z,60.80
2023-04-17T13:25:21.165Z,60.50
2023-04-17T13:27:48.050Z,60.00
2023-04-17T13:30:14.978Z,59.80
2023-04-17T13:32:43.029Z,60.20
2023-04-17T13:35:13.113Z,60.00
2023-04-17T13:37:41.381Z,60.10
2023-04-17T13:40:10.859Z,60.40
2023-04-17T13:42:38.157Z,60.30
2023-04-17T13:45:05.724Z,60.00
2023-04-17T13:47:32.495Z,60.90
2023-04-17T13:49:59.676Z,60.10
2023-04-17T13:52:26.990Z,60.20
2023-04-17T13:54:54.280Z,60.10
2023-04-17T13:57:21.358Z,59.90
2023-04-17T13:59:48.199Z,59.80
2023-04-17T14:02:15.125Z,59.90
2023-04-17T14:04:42.281Z,60.00
2023-04-17T14:07:09.458Z,60.20
2023-04-17T14:09:36.231Z,60.00
2023-04-17T14:12:03.452Z,59.90
2023-04-17T14:14:30.241Z,59.70
2023-04-17T14:16:57.549Z,59.70
2023-04-17T14:19:24.467Z,60.20
2023-04-17T14:21:51.578Z,60.20
2023-04-17T14:24:18.544Z,60.20
2023-04-17T14:26:45.505Z,60.10
2023-04-17T14:29:14.147Z,60.00
2023-04-17T14:31:41.542Z,60.00
2023-04-17T14:34:08.538Z,60.00
2023-04-17T14:36:36.051Z,60.40
2023-04-17T14:39:03.126Z,60.50
2023-04-17T14:41:33.943Z,60.40
2023-04-17T14:44:00.998Z,60.30
2023-04-17T14:46:27.867Z,59.70
2023-04-17T14:48:56.231Z,59.70
2023-04-17T14:51:27.078Z,60.00
2023-04-17T14:53:54.382Z,59.90
2023-04-17T14:56:21.825Z,60.00
2023-04-17T14:58:48.950Z,60.30
2023-04-17T15:01:16.055Z,60.10
2023-04-17T15:03:47.452Z,60.10
2023-04-17T15:06:15.561Z,60.30
2023-04-17T15:08:42.763Z,60.40
2023-04-17T15:11:09.870Z,60.40
2023-04-17T15:13:36.651Z,60.20
2023-04-17T15:16:03.679Z,60.50
2023-04-17T15:18:30.842Z,60.50
2023-04-17T15:20:57.872Z,60.10
2023-04-17T15:23:26.589Z,59.90
2023-04-17T15:25:57.592Z,60.20
2023-04-17T15:28:25.542Z,60.10
2023-04-17T15:30:52.391Z,60.00
2023-04-17T15:33:19.395Z,60.00
2023-04-17T15:35:46.190Z,60.00
2023-04-17T15:38:13.268Z,59.80
2023-04-17T15:40:40.043Z,59.70
2023-04-17T15:43:07.381Z,59.60
2023-04-17T15:45:34.265Z,60.20
2023-04-17T15:48:01.824Z,59.80
2023-04-17T15:50:28.708Z,60.00
2023-04-17T15:52:56.096Z,59.90
2023-04-17T15:55:22.858Z,60.00
2023-04-17T15:57:49.692Z,59.70
2023-04-17T16:00:16.989Z,59.70
2023-04-17T16:02:47.603Z,59.70
2023-04-17T16:05:15.815Z,60.60
2023-04-17T16:07:42.588Z,60.40
2023-04-17T16:10:13.951Z,59.50
2023-04-17T16:12:43.226Z,59.30
2023-04-17T16:15:11.868Z,59.10
2023-04-17T16:17:38.612Z,58.70
2023-04-17T16:20:06.273Z,58.50
2023-04-17T16:22:33.158Z,58.30
2023-04-17T16:25:00.153Z,58.30
2023-04-17T16:27:26.983Z,58.40
2023-04-17T16:29:54.455Z,58.40
2023-04-17T16:32:24.579Z,58.10
2023-04-17T16:34:52.266Z,58.00
2023-04-17T16:37:19.040Z,58.30
2023-04-17T16:39:45.911Z,58.50
2023-04-17T16:42:13.200Z,58.40
2023-04-17T16:44:39.988Z,58.50
2023-04-17T16:47:13.417Z,58.50
2023-04-17T16:49:41.214Z,58.50
2023-04-17T16:52:08.227Z,58.40
2023-04-17T16:54:36.072Z,58.40
2023-04-17T16:57:03.110Z,58.40
2023-04-17T16:59:29.909Z,58.30
2023-04-17T17:01:57.310Z,58.20
2023-04-17T17:04:24.564Z,58.30
2023-04-17T17:06:51.664Z,58.30
2023-04-17T17:09:20.181Z,58.60
2023-04-17T17:11:47.467Z,58.40
2023-04-17T17:14:16.131Z,58.40
2023-04-17T17:16:43.112Z,58.30
2023-04-17T17:19:10.010Z,58.30
2023-04-17T17:21:36.969Z,58.30
2023-04-17T17:24:04.070Z,58.40
2023-04-17T17:26:30.975Z,58.40
2023-04-17T17:28:57.722Z,58.40
2023-04-17T17:31:25.051Z,58.50
2023-04-17T17:33:54.082Z,58.50
2023-04-17T17:36:21.877Z,58.90
2023-04-17T17:38:55.765Z,59.00
2023-04-17T17:41:26.191Z,58.90
2023-04-17T17:43:55.998Z,58.60
2023-04-17T17:46:24.444Z,58.80
2023-04-17T17:48:51.368Z,58.90
2023-04-17T17:51:18.192Z,58.60
2023-04-17T17:53:45.320Z,58.50
2023-04-17T17:56:12.095Z,58.60
2023-04-17T17:58:39.651Z,58.80
2023-04-17T18:01:07.092Z,59.20
2023-04-17T18:03:35.413Z,59.00
2023-04-17T18:06:02.391Z,58.80
2023-04-17T18:08:29.306Z,58.60
2023-04-17T18:10:56.009Z,58.80
2023-04-17T18:13:23.168Z,58.60
2023-04-17T18:15:50.050Z,58.70
2023-04-17T18:18:17.314Z,59.10
2023-04-17T18:20:44.144Z,59.20
2023-04-17T18:23:11.402Z,59.40
2023-04-17T18:25:39.267Z,59.70
2023-04-17T18:28:06.762Z,59.40
2023-04-17T18:30:33.573Z,59.40
2023-04-17T18:33:00.430Z,59.60
2023-04-17T18:35:27.257Z,59.70
2023-04-17T18:37:54.075Z,59.80
2023-04-17T18:40:21.068Z,59.60
2023-04-17T18:42:47.915Z,59.70
2023-04-17T18:45:15.844Z,59.50
2023-04-17T18:47:42.890Z,59.60
2023-04-17T18:50:11.234Z,59.50
2023-04-17T18:52:40.193Z,59.70
2023-04-17T18:55:07.796Z,59.80
2023-04-17T18:57:34.749Z,59.90
2023-04-17T19:00:01.581Z,60.00
2023-04-17T19:02:28.960Z,60.00
2023-04-17T19:04:56.356Z,60.00
2023-04-17T19:07:23.925Z,60.00
2023-04-17T19:09:50.755Z,59.80
2023-04-17T19:12:18.099Z,59.90
2023-04-17T19:14:44.853Z,59.80
2023-04-17T19:17:11.805Z,59.90
2023-04-17T19:19:39.265Z,60.00
2023-04-17T19:22:06.186Z,60.20
2023-04-17T19:24:33.043Z,60.30
2023-04-17T19:26:59.827Z,60.40
2023-04-17T19:29:27.335Z,60.60
2023-04-17T19:31:54.112Z,60.70
2023-04-17T19:34:21.371Z,60.60
2023-04-17T19:36:48.156Z,60.70
2023-04-17T19:39:15.664Z,60.70
2023-04-17T19:41:43.511Z,60.50
2023-04-17T19:44:10.600Z,60.70
2023-04-17T19:46:37.385Z,60.80
2023-04-17T19:49:04.870Z,60.70
2023-04-17T19:51:31.631Z,60.70
2023-04-17T19:53:58.800Z,60.70
2023-04-17T19:56:25.899Z,60.90
2023-04-17T19:58:52.683Z,61.10
2023-04-17T20:01:19.506Z,61.10
2023-04-17T20:03:46.512Z,61.40
2023-04-17T20:06:14.037Z,61.50
2023-04-17T20:08:40.904Z,61.70
2023-04-17T20:11:11.868Z,61.70
2023-04-17T20:13:39.080Z,61.80
2023-04-17T20:16:06.235Z,61.70
2023-04-17T20:18:33.901Z,61.70
2023-04-17T20:21:04.514Z,61.70
2023-04-17T20:23:31.319Z,61.70
2023-04-17T20:25:58.083Z,61.70
2023-04-17T20:28:25.152Z,62.10
2023-04-17T20:30:52.286Z,62.30
2023-04-17T20:33:19.144Z,62.40
2023-04-17T20:35:46.446Z,62.40
2023-04-17T20:38:13.222Z,62.60
2023-04-17T20:40:40.023Z,62.70
2023-04-17T20:43:07.104Z,62.70
2023-04-17T20:45:33.870Z,62.70
2023-04-17T20:48:01.891Z,62.90
2023-04-17T20:50:28.830Z,64.30
2023-04-17T20:52:55.594Z,64.50
2023-04-17T20:55:22.462Z,64.70
2023-04-17T20:57:49.729Z,64.80
2023-04-17T21:00:16.738Z,65.10
2023-04-17T21:02:44.439Z,65.00
2023-04-17T21:05:11.280Z,65.00
2023-04-17T21:07:38.458Z,64.90
2023-04-17T21:10:05.855Z,64.90
2023-04-17T21:12:35.032Z,64.90
2023-04-17T21:15:01.950Z,65.20
2023-04-17T21:17:28.749Z,65.40
2023-04-17T21:19:58.253Z,65.40
2023-04-17T21:22:25.171Z,65.50
2023-04-17T21:24:52.262Z,65.70
2023-04-17T21:27:19.024Z,65.50
2023-04-17T21:29:45.792Z,65.50
2023-04-17T21:32:12.769Z,65.50
2023-04-17T21:34:39.766Z,65.60
2023-04-17T21:37:06.532Z,65.60
2023-04-17T21:39:33.516Z,65.80
2023-04-17T21:42:01.798Z,65.80
2023-04-17T21:44:28.782Z,66.00
2023-04-17T21:46:55.712Z,66.10
2023-04-17T21:49:22.851Z,66.10
2023-04-17T21:51:50.526Z,66.30
2023-04-17T21:54:17.332Z,66.60
2023-04-17T21:56:44.515Z,66.50
2023-04-17T21:59:11.324Z,66.50
2023-04-17T22:01:38.768Z,66.50
2023-04-17T22:04:05.603Z,66.50
2023-04-17T22:06:36.529Z,66.40
2023-04-17T22:09:04.697Z,66.50
2023-04-17T22:11:31.473Z,66.60
2023-04-17T22:13:58.628Z,66.70
2023-04-17T22:16:25.492Z,67.40
2023-04-17T22:18:52.580Z,66.50
2023-04-17T22:21:19.328Z,66.30
2023-04-17T22:23:46.204Z,66.30
2023-04-17T22:26:12.999Z,66.40
2023-04-17T22:28:39.808Z,66.50
2023-04-17T22:31:06.900Z,66.60
2023-04-17T22:33:33.634Z,66.60
2023-04-17T22:36:00.376Z,66.90
2023-04-17T22:38:27.140Z,66.90
2023-04-17T22:40:55.069Z,67.00
2023-04-17T22:43:21.830Z,67.10
2023-04-17T22:45:48.638Z,67.20
2023-04-17T22:48:15.431Z,67.30
2023-04-17T22:50:42.792Z,67.30
2023-04-17T22:53:09.880Z,67.30
2023-04-17T22:55:36.769Z,67.60
2023-04-17T22:58:04.405Z,67.50
2023-04-17T23:00:31.961Z,67.60
2023-04-17T23:02:58.946Z,67.50
2023-04-17T23:05:25.849Z,67.50
2023-04-17T23:07:52.848Z,67.60
2023-04-17T23:10:20.325Z,67.60
2023-04-17T23:12:47.430Z,67.80
2023-04-17T23:15:14.414Z,68.00
2023-04-17T23:17:41.606Z,68.00
2023-04-17T23:20:08.720Z,68.00
2023-04-17T23:22:35.739Z,68.00
2023-04-17T23:25:03.016Z,68.10
2023-04-17T23:27:29.857Z,68.40
2023-04-17T23:29:58.295Z,68.40
2023-04-17T23:32:25.710Z,69.20
2023-04-17T23:34:52.481Z,68.50
2023-04-17T23:37:19.373Z,68.50
2023-04-17T23:39:47.363Z,68.50
2023-04-17T23:42:14.219Z,68.60
2023-04-17T23:44:41.049Z,68.40
2023-04-17T23:47:07.957Z,68.50
2023-04-17T23:49:36.056Z,68.60
2023-04-17T23:52:02.886Z,68.60
2023-04-17T23:54:29.754Z,69.40
2023-04-17T23:56:56.554Z,68.60
2023-04-17T23:59:23.837Z,68.50
